| time (UTC) | temp F | wind direction | speed MPH | gust MPH | rain 1hr in | rain 24hr in | rain mn in | humidity % | barometer mb |
| 20260904153905 | 72 | 78 | 3.0 | 3.0 | 0.00 | 0.00 | 0.00 | 36 | 1012.7 |
| 20260904153405 | 71 | 285 | 3.0 | 3.0 | 0.00 | 0.00 | 0.00 | 37 | 1012.6 |
| 20260904152902 | 71 | 122 | 5.0 | 5.0 | 0.00 | 0.00 | 0.00 | 37 | 1012.8 |
| 20260904152356 | 70 | 95 | 4.0 | 5.0 | 0.00 | 0.00 | 0.00 | 39 | 1012.7 |
| 20260904151855 | 69 | 258 | 4.0 | 6.0 | 0.00 | 0.00 | 0.00 | 40 | 1012.6 |
| 20260904151350 | 70 | 338 | 1.0 | 1.0 | 0.00 | 0.00 | 0.00 | 40 | 1012.6 |
| 20260904150846 | 70 | 193 | 4.0 | 5.0 | 0.00 | 0.00 | 0.00 | 40 | 1012.6 |
| 20260904150341 | 69 | 188 | 1.0 | 1.0 | 0.00 | 0.00 | 0.00 | 42 | 1012.6 |
| 20260904145838 | 68 | 164 | 2.0 | 3.0 | 0.00 | 0.00 | 0.00 | 43 | 1012.6 |
| 20260904145335 | 68 | 254 | 0.0 | 1.0 | 0.00 | 0.00 | 0.00 | 44 | 1012.5 |
| 20260904144830 | 68 | 8 | 5.0 | 6.0 | 0.00 | 0.00 | 0.00 | 43 | 1012.4 |
| 20260904144326 | 67 | 233 | 0.0 | 0.0 | 0.00 | 0.00 | 0.00 | 45 | 1012.4 |
| 20260904143821 | 66 | 240 | 0.0 | 0.0 | 0.00 | 0.00 | 0.00 | 48 | 1012.2 |
| 20260904143318 | 65 | 253 | 3.0 | 3.0 | 0.00 | 0.00 | 0.00 | 50 | 1012.2 |
| 20260904142814 | 64 | 263 | 3.0 | 3.0 | 0.00 | 0.00 | 0.00 | 52 | 1011.9 |
| 20260904142309 | 64 | 210 | 5.0 | 6.0 | 0.00 | 0.00 | 0.00 | 53 | 1012.2 |
| 20260904141804 | 64 | 319 | 3.0 | 3.0 | 0.00 | 0.00 | 0.00 | 52 | 1012.0 |
| 20260904141259 | 63 | 291 | 3.0 | 3.0 | 0.00 | 0.00 | 0.00 | 52 | 1012.1 |
| 20260904140755 | 62 | 298 | 4.0 | 6.0 | 0.00 | 0.00 | 0.00 | 53 | 1012.0 |
| 20260904140250 | 62 | 284 | 3.0 | 3.0 | 0.00 | 0.00 | 0.00 | 53 | 1012.1 |
| 20260904135749 | 62 | 261 | 0.0 | 1.0 | 0.00 | 0.00 | 0.00 | 55 | 1012.1 |
| 20260904135244 | 62 | 270 | 2.0 | 3.0 | 0.00 | 0.00 | 0.00 | 53 | 1011.9 |
| 20260904134741 | 62 | 279 | 4.0 | 5.0 | 0.00 | 0.00 | 0.00 | 52 | 1012.0 |
| 20260904134240 | 62 | 299 | 5.0 | 7.0 | 0.00 | 0.00 | 0.00 | 52 | 1012.1 |
| 20260904133735 | 62 | 269 | 5.0 | 7.0 | 0.00 | 0.00 | 0.00 | 49 | 1011.7 |
| 20260904133231 | 62 | 282 | 1.0 | 2.0 | 0.00 | 0.00 | 0.00 | 50 | 1011.7 |
| 20260904132730 | 62 | 301 | 3.0 | 3.0 | 0.00 | 0.00 | 0.00 | 49 | 1011.6 |
| 20260904132226 | 62 | 304 | 1.0 | 1.0 | 0.00 | 0.00 | 0.00 | 50 | 1011.6 |
| 20260904131724 | 62 | 243 | 0.0 | 0.0 | 0.00 | 0.00 | 0.00 | 50 | 1011.6 |
| 20260904131221 | 62 | 248 | 3.0 | 3.0 | 0.00 | 0.00 | 0.00 | 50 | 1011.6 |
| 20260904130715 | 62 | 250 | 3.0 | 3.0 | 0.00 | 0.00 | 0.00 | 50 | 1011.7 |
| 20260904130214 | 62 | 353 | 6.0 | 7.0 | 0.00 | 0.00 | 0.00 | 51 | 1011.5 |
| 20260904125710 | 62 | 326 | 4.0 | 5.0 | 0.00 | 0.00 | 0.00 | 51 | 1011.3 |
| 20260904125206 | 62 | 259 | 6.0 | 7.0 | 0.00 | 0.00 | 0.00 | 51 | 1011.3 |
| 20260904124701 | 61 | 30 | 7.0 | 8.0 | 0.00 | 0.00 | 0.00 | 54 | 1011.4 |
| 20260904124156 | 62 | 147 | 0.0 | 1.0 | 0.00 | 0.00 | 0.00 | 54 | 1011.5 |
| 20260904123657 | 62 | 10 | 2.0 | 3.0 | 0.00 | 0.00 | 0.00 | 53 | 1011.3 |
| 20260904123153 | 62 | 289 | 1.0 | 2.0 | 0.00 | 0.00 | 0.00 | 51 | 1011.6 |
| 20260904122652 | 62 | 354 | 3.0 | 3.0 | 0.00 | 0.00 | 0.00 | 51 | 1011.6 |
| 20260904122147 | 63 | 8 | 8.0 | 9.0 | 0.00 | 0.00 | 0.00 | 50 | 1011.5 |
| 20260904121642 | 65 | 60 | 3.0 | 5.0 | 0.00 | 0.00 | 0.00 | 43 | 1011.6 |
| 20260904121138 | 66 | 146 | 5.0 | 7.0 | 0.00 | 0.00 | 0.00 | 37 | 1011.4 |
| 20260904120634 | 66 | 224 | 5.0 | 7.0 | 0.00 | 0.00 | 0.00 | 38 | 1011.4 |
| 20260904120131 | 66 | 237 | 17.0 | 23.0 | 0.00 | 0.00 | 0.00 | 38 | 1011.3 |
| 20260904115631 | 66 | 228 | 15.0 | 20.0 | 0.00 | 0.00 | 0.00 | 38 | 1011.4 |
| 20260904115125 | 65 | 253 | 14.0 | 18.0 | 0.00 | 0.00 | 0.00 | 40 | 1011.0 |
| 20260904114620 | 65 | 221 | 17.0 | 20.0 | 0.00 | 0.00 | 0.00 | 42 | 1011.4 |
| 20260904114115 | 65 | 254 | 13.0 | 15.0 | 0.00 | 0.00 | 0.00 | 42 | 1011.3 |
| 20260904113615 | 65 | 272 | 12.0 | 13.0 | 0.00 | 0.00 | 0.00 | 43 | 1011.3 |
| 20260904113114 | 65 | 233 | 16.0 | 20.0 | 0.00 | 0.00 | 0.00 | 44 | 1011.2 |
| 20260904112609 | 65 | 252 | 14.0 | 16.0 | 0.00 | 0.00 | 0.00 | 43 | 1011.4 |
| 20260904112105 | 65 | 251 | 16.0 | 17.0 | 0.00 | 0.00 | 0.00 | 44 | 1011.1 |
| 20260904111601 | 66 | 231 | 10.0 | 11.0 | 0.00 | 0.00 | 0.00 | 43 | 1011.4 |
| 20260904111056 | 66 | 250 | 15.0 | 18.0 | 0.00 | 0.00 | 0.00 | 43 | 1011.3 |
| 20260904110550 | 66 | 243 | 17.0 | 25.0 | 0.00 | 0.00 | 0.00 | 43 | 1011.4 |
| 20260904110046 | 66 | 216 | 13.0 | 16.0 | 0.00 | 0.00 | 0.00 | 42 | 1011.4 |
| 20260904105545 | 66 | 257 | 16.0 | 20.0 | 0.00 | 0.00 | 0.00 | 42 | 1011.3 |
| 20260904105040 | 66 | 240 | 14.0 | 18.0 | 0.00 | 0.00 | 0.00 | 41 | 1011.3 |
| 20260904104536 | 66 | 231 | 16.0 | 21.0 | 0.00 | 0.00 | 0.00 | 42 | 1011.4 |
| 20260904104031 | 67 | 229 | 13.0 | 16.0 | 0.00 | 0.00 | 0.00 | 42 | 1011.1 |
| 20260904103527 | 66 | 237 | 17.0 | 20.0 | 0.00 | 0.00 | 0.00 | 42 | 1011.0 |
| 20260904103023 | 66 | 259 | 13.0 | 17.0 | 0.00 | 0.00 | 0.00 | 44 | 1011.2 |
| 20260904102519 | 66 | 240 | 15.0 | 17.0 | 0.00 | 0.00 | 0.00 | 44 | 1011.4 |
| 20260904102014 | 66 | 240 | 16.0 | 21.0 | 0.00 | 0.00 | 0.00 | 44 | 1011.2 |
| 20260904101511 | 66 | 257 | 13.0 | 16.0 | 0.00 | 0.00 | 0.00 | 44 | 1011.3 |
| 20260904101006 | 66 | 254 | 11.0 | 14.0 | 0.00 | 0.00 | 0.00 | 44 | 1011.5 |
| 20260904100502 | 66 | 226 | 14.0 | 17.0 | 0.00 | 0.00 | 0.00 | 44 | 1011.2 |
| 20260904100001 | 66 | 241 | 17.0 | 23.0 | 0.00 | 0.00 | 0.00 | 45 | 1011.1 |
| 20260904095456 | 66 | 287 | 15.0 | 20.0 | 0.00 | 0.00 | 0.00 | 46 | 1011.3 |
| 20260904094951 | 66 | 219 | 15.0 | 17.0 | 0.00 | 0.00 | 0.00 | 47 | 1011.1 |
| 20260904094446 | 66 | 241 | 9.0 | 11.0 | 0.00 | 0.00 | 0.00 | 47 | 1011.2 |
| 20260904093942 | 66 | 214 | 12.0 | 15.0 | 0.00 | 0.00 | 0.00 | 47 | 1011.3 |
| 20260904093438 | 66 | 268 | 12.0 | 14.0 | 0.00 | 0.00 | 0.00 | 49 | 1011.3 |
| 20260904092933 | 65 | 231 | 13.0 | 16.0 | 0.00 | 0.00 | 0.00 | 51 | 1011.5 |
| 20260904092429 | 65 | 229 | 12.0 | 15.0 | 0.00 | 0.00 | 0.00 | 52 | 1011.3 |
| 20260904091925 | 65 | 245 | 12.0 | 16.0 | 0.00 | 0.00 | 0.00 | 53 | 1011.3 |
| 20260904091420 | 65 | 246 | 18.0 | 20.0 | 0.00 | 0.00 | 0.00 | 52 | 1011.4 |
| 20260904090909 | 65 | 239 | 15.0 | 18.0 | 0.00 | 0.00 | 0.00 | 53 | 1011.3 |
| 20260904090406 | 65 | 241 | 14.0 | 15.0 | 0.00 | 0.00 | 0.00 | 53 | 1011.4 |
| 20260904085900 | 65 | 244 | 17.0 | 18.0 | 0.00 | 0.00 | 0.00 | 53 | 1011.3 |
| 20260904085356 | 65 | 243 | 19.0 | 24.0 | 0.00 | 0.00 | 0.00 | 52 | 1011.5 |
| 20260904084855 | 66 | 226 | 11.0 | 14.0 | 0.00 | 0.00 | 0.00 | 52 | 1011.3 |
| 20260904084352 | 66 | 208 | 15.0 | 18.0 | 0.00 | 0.00 | 0.00 | 50 | 1011.4 |
| 20260904083847 | 66 | 229 | 18.0 | 21.0 | 0.00 | 0.00 | 0.00 | 51 | 1011.5 |
| 20260904083343 | 66 | 229 | 16.0 | 21.0 | 0.00 | 0.00 | 0.00 | 50 | 1011.8 |
| 20260904082839 | 66 | 252 | 16.0 | 22.0 | 0.00 | 0.00 | 0.00 | 50 | 1011.4 |
| 20260904082333 | 66 | 263 | 18.0 | 23.0 | 0.00 | 0.00 | 0.00 | 50 | 1011.6 |
| 20260904081828 | 66 | 225 | 15.0 | 18.0 | 0.00 | 0.00 | 0.00 | 51 | 1011.4 |
| 20260904081324 | 66 | 209 | 12.0 | 15.0 | 0.00 | 0.00 | 0.00 | 50 | 1011.8 |
| 20260904080820 | 66 | 248 | 14.0 | 15.0 | 0.00 | 0.00 | 0.00 | 52 | 1011.6 |
| 20260904080315 | 66 | 254 | 16.0 | 18.0 | 0.00 | 0.00 | 0.00 | 53 | 1011.8 |
| 20260904075812 | 66 | 223 | 20.0 | 22.0 | 0.00 | 0.00 | 0.00 | 54 | 1011.7 |
| 20260904075307 | 66 | 240 | 12.0 | 14.0 | 0.00 | 0.00 | 0.00 | 55 | 1011.8 |
| 20260904074805 | 66 | 245 | 15.0 | 18.0 | 0.00 | 0.00 | 0.00 | 54 | 1011.9 |
| 20260904074300 | 66 | 208 | 11.0 | 15.0 | 0.00 | 0.00 | 0.00 | 52 | 1011.8 |
| 20260904073756 | 66 | 241 | 12.0 | 14.0 | 0.00 | 0.00 | 0.00 | 51 | 1011.7 |
| 20260904073251 | 66 | 244 | 21.0 | 23.0 | 0.00 | 0.00 | 0.00 | 52 | 1011.6 |
| 20260904072748 | 67 | 200 | 10.0 | 11.0 | 0.00 | 0.00 | 0.00 | 50 | 1011.8 |
| 20260904072246 | 66 | 241 | 12.0 | 17.0 | 0.00 | 0.00 | 0.00 | 51 | 1011.7 |
| 20260904071742 | 66 | 239 | 19.0 | 23.0 | 0.00 | 0.00 | 0.00 | 51 | 1011.7 |
| 20260904071237 | 67 | 244 | 13.0 | 15.0 | 0.00 | 0.00 | 0.00 | 50 | 1011.7 |
| 20260904070732 | 67 | 255 | 17.0 | 18.0 | 0.00 | 0.00 | 0.00 | 49 | 1011.8 |
| 20260904070231 | 67 | 234 | 12.0 | 13.0 | 0.00 | 0.00 | 0.00 | 49 | 1011.6 |
| 20260904065726 | 67 | 263 | 17.0 | 22.0 | 0.00 | 0.00 | 0.00 | 47 | 1011.6 |
| 20260904065223 | 67 | 245 | 8.0 | 9.0 | 0.00 | 0.00 | 0.00 | 45 | 1011.6 |
| 20260904064722 | 67 | 248 | 13.0 | 17.0 | 0.00 | 0.00 | 0.00 | 45 | 1011.6 |
| 20260904064218 | 67 | 238 | 12.0 | 17.0 | 0.00 | 0.00 | 0.00 | 45 | 1011.7 |
| 20260904063714 | 68 | 258 | 7.0 | 9.0 | 0.00 | 0.00 | 0.00 | 45 | 1011.5 |
| 20260904063210 | 67 | 238 | 11.0 | 14.0 | 0.00 | 0.00 | 0.00 | 45 | 1011.4 |
| 20260904062705 | 67 | 243 | 13.0 | 20.0 | 0.00 | 0.00 | 0.00 | 47 | 1011.3 |
| 20260904062201 | 67 | 267 | 7.0 | 10.0 | 0.00 | 0.00 | 0.00 | 47 | 1011.3 |
| 20260904061656 | 67 | 269 | 11.0 | 13.0 | 0.00 | 0.00 | 0.00 | 47 | 1011.5 |
| 20260904061153 | 67 | 263 | 12.0 | 14.0 | 0.00 | 0.00 | 0.00 | 49 | 1011.4 |
| 20260904060649 | 67 | 244 | 10.0 | 11.0 | 0.00 | 0.00 | 0.00 | 51 | 1011.5 |
| 20260904060145 | 67 | 251 | 14.0 | 18.0 | 0.00 | 0.00 | 0.00 | 49 | 1011.6 |
| 20260904055638 | 67 | 254 | 11.0 | 13.0 | 0.00 | 0.00 | 0.00 | 48 | 1011.7 |
| 20260904055134 | 67 | 254 | 16.0 | 21.0 | 0.00 | 0.00 | 0.00 | 49 | 1011.5 |
| 20260904054629 | 67 | 200 | 5.0 | 7.0 | 0.00 | 0.00 | 0.00 | 50 | 1011.4 |
| 20260904054125 | 67 | 267 | 9.0 | 10.0 | 0.00 | 0.00 | 0.00 | 49 | 1011.5 |
| 20260904053620 | 67 | 250 | 8.0 | 10.0 | 0.00 | 0.00 | 0.00 | 48 | 1011.4 |
| 20260904053115 | 67 | 243 | 10.0 | 11.0 | 0.00 | 0.00 | 0.00 | 47 | 1011.2 |
| 20260904052612 | 67 | 252 | 7.0 | 9.0 | 0.00 | 0.00 | 0.00 | 48 | 1011.6 |
| 20260904052107 | 67 | 230 | 12.0 | 15.0 | 0.00 | 0.00 | 0.00 | 48 | 1011.5 |
| 20260904051603 | 67 | 233 | 14.0 | 17.0 | 0.00 | 0.00 | 0.00 | 48 | 1011.6 |
| 20260904051103 | 68 | 219 | 10.0 | 11.0 | 0.00 | 0.00 | 0.00 | 48 | 1011.6 |
| 20260904050559 | 68 | 241 | 20.0 | 23.0 | 0.00 | 0.00 | 0.00 | 49 | 1011.7 |
| 20260904050055 | 68 | 202 | 16.0 | 18.0 | 0.00 | 0.00 | 0.00 | 51 | 1011.8 |
| 20260904045549 | 68 | 225 | 15.0 | 18.0 | 0.00 | 0.00 | 0.00 | 52 | 1011.7 |
| 20260904045044 | 68 | 251 | 12.0 | 15.0 | 0.00 | 0.00 | 0.00 | 52 | 1011.6 |
| 20260904044540 | 68 | 225 | 12.0 | 15.0 | 0.00 | 0.00 | 0.00 | 51 | 1011.7 |
| 20260904044036 | 68 | 244 | 11.0 | 14.0 | 0.00 | 0.00 | 0.00 | 51 | 1011.6 |
| 20260904043532 | 68 | 251 | 9.0 | 10.0 | 0.00 | 0.00 | 0.00 | 50 | 1011.5 |
| 20260904043028 | 68 | 249 | 10.0 | 14.0 | 0.00 | 0.00 | 0.00 | 51 | 1011.4 |
| 20260904042524 | 68 | 257 | 15.0 | 18.0 | 0.00 | 0.00 | 0.00 | 55 | 1011.5 |
| 20260904042019 | 68 | 255 | 17.0 | 21.0 | 0.00 | 0.00 | 0.00 | 55 | 1011.6 |
| 20260904041515 | 68 | 256 | 12.0 | 14.0 | 0.00 | 0.00 | 0.00 | 58 | 1011.3 |
| 20260904041011 | 68 | 229 | 14.0 | 17.0 | 0.00 | 0.00 | 0.00 | 58 | 1011.5 |
| 20260904040511 | 68 | 238 | 23.0 | 27.0 | 0.00 | 0.00 | 0.00 | 58 | 1011.3 |
| 20260904040008 | 68 | 233 | 17.0 | 22.0 | 0.00 | 0.00 | 0.00 | 58 | 1011.3 |
| 20260904035503 | 68 | 262 | 16.0 | 20.0 | 0.00 | 0.00 | 0.00 | 59 | 1011.2 |
| 20260904035002 | 68 | 245 | 15.0 | 18.0 | 0.00 | 0.00 | 0.00 | 59 | 1011.1 |
| 20260904034457 | 69 | 238 | 20.0 | 25.0 | 0.00 | 0.00 | 0.00 | 57 | 1011.2 |
| 20260904033953 | 68 | 241 | 14.0 | 18.0 | 0.00 | 0.00 | 0.00 | 57 | 1011.2 |
| 20260904033449 | 68 | 220 | 16.0 | 18.0 | 0.00 | 0.00 | 0.00 | 58 | 1011.1 |
| 20260904032945 | 69 | 227 | 16.0 | 22.0 | 0.00 | 0.00 | 0.00 | 58 | 1011.1 |
| 20260904032440 | 69 | 243 | 15.0 | 20.0 | 0.00 | 0.00 | 0.00 | 58 | 1011.0 |
| 20260904031939 | 69 | 286 | 15.0 | 17.0 | 0.00 | 0.00 | 0.00 | 59 | 1011.1 |
| 20260904031434 | 69 | 219 | 18.0 | 23.0 | 0.00 | 0.00 | 0.00 | 58 | 1011.2 |
| 20260904030930 | 69 | 249 | 20.0 | 26.0 | 0.00 | 0.00 | 0.00 | 58 | 1011.1 |
| 20260904030425 | 69 | 239 | 19.0 | 22.0 | 0.00 | 0.00 | 0.00 | 58 | 1011.0 |
| 20260904025920 | 69 | 240 | 13.0 | 16.0 | 0.00 | 0.00 | 0.00 | 58 | 1011.0 |
| 20260904025416 | 69 | 241 | 24.0 | 25.0 | 0.00 | 0.00 | 0.00 | 58 | 1010.7 |
| 20260904024916 | 70 | 246 | 17.0 | 20.0 | 0.00 | 0.00 | 0.00 | 57 | 1010.9 |
| 20260904024411 | 70 | 247 | 12.0 | 16.0 | 0.00 | 0.00 | 0.00 | 57 | 1010.7 |
| 20260904023907 | 70 | 264 | 17.0 | 20.0 | 0.00 | 0.00 | 0.00 | 57 | 1010.9 |
| 20260904023404 | 70 | 243 | 9.0 | 13.0 | 0.00 | 0.00 | 0.00 | 56 | 1010.9 |
| 20260904022902 | 71 | 257 | 12.0 | 16.0 | 0.00 | 0.00 | 0.00 | 55 | 1011.1 |
| 20260904022359 | 71 | 276 | 12.0 | 14.0 | 0.00 | 0.00 | 0.00 | 54 | 1010.9 |
| 20260904021856 | 71 | 273 | 13.0 | 20.0 | 0.00 | 0.00 | 0.00 | 54 | 1011.2 |
| 20260904021351 | 71 | 285 | 11.0 | 15.0 | 0.00 | 0.00 | 0.00 | 55 | 1011.0 |
| 20260904020846 | 72 | 284 | 9.0 | 10.0 | 0.00 | 0.00 | 0.00 | 54 | 1011.2 |
| 20260904020341 | 72 | 285 | 12.0 | 14.0 | 0.00 | 0.00 | 0.00 | 54 | 1011.1 |
| 20260904015839 | 72 | 259 | 14.0 | 17.0 | 0.00 | 0.00 | 0.00 | 53 | 1011.3 |
| 20260904015335 | 73 | 257 | 7.0 | 8.0 | 0.00 | 0.00 | 0.00 | 52 | 1011.1 |
| 20260904014834 | 73 | 295 | 11.0 | 14.0 | 0.00 | 0.00 | 0.00 | 51 | 1011.0 |
| 20260904014329 | 73 | 263 | 8.0 | 9.0 | 0.00 | 0.00 | 0.00 | 51 | 1011.1 |
| 20260904013825 | 73 | 270 | 10.0 | 11.0 | 0.00 | 0.00 | 0.00 | 51 | 1010.9 |
| 20260904013321 | 74 | 251 | 11.0 | 14.0 | 0.00 | 0.00 | 0.00 | 50 | 1011.2 |
| 20260904012816 | 74 | 278 | 8.0 | 9.0 | 0.00 | 0.00 | 0.00 | 50 | 1011.3 |
| 20260904012311 | 74 | 282 | 10.0 | 11.0 | 0.00 | 0.00 | 0.00 | 50 | 1011.0 |
| 20260904011809 | 74 | 242 | 15.0 | 18.0 | 0.00 | 0.00 | 0.00 | 48 | 1010.9 |
| 20260904011259 | 75 | 274 | 13.0 | 18.0 | 0.00 | 0.00 | 0.00 | 48 | 1011.0 |
| 20260904010759 | 75 | 257 | 14.0 | 17.0 | 0.00 | 0.00 | 0.00 | 47 | 1011.2 |
| 20260904010256 | 76 | 282 | 13.0 | 16.0 | 0.00 | 0.00 | 0.00 | 47 | 1011.1 |
| 20260904005751 | 75 | 248 | 12.0 | 14.0 | 0.00 | 0.00 | 0.00 | 46 | 1011.0 |
| 20260904005247 | 76 | 240 | 6.0 | 8.0 | 0.00 | 0.00 | 0.00 | 46 | 1010.9 |
| 20260904004741 | 76 | 252 | 14.0 | 17.0 | 0.00 | 0.00 | 0.00 | 46 | 1011.1 |
| 20260904004238 | 76 | 232 | 13.0 | 16.0 | 0.00 | 0.00 | 0.00 | 46 | 1011.0 |
| 20260904003732 | 76 | 268 | 9.0 | 11.0 | 0.00 | 0.00 | 0.00 | 46 | 1011.1 |
| 20260904003228 | 76 | 282 | 8.0 | 10.0 | 0.00 | 0.00 | 0.00 | 47 | 1011.1 |
| 20260904002723 | 77 | 241 | 15.0 | 21.0 | 0.00 | 0.00 | 0.00 | 46 | 1011.1 |
| 20260904002220 | 77 | 236 | 6.0 | 7.0 | 0.00 | 0.00 | 0.00 | 46 | 1011.1 |
| 20260904001714 | 78 | 248 | 12.0 | 13.0 | 0.00 | 0.00 | 0.00 | 45 | 1011.1 |
| 20260904001214 | 77 | 231 | 11.0 | 14.0 | 0.00 | 0.00 | 0.00 | 44 | 1011.0 |
| 20260904000709 | 77 | 263 | 14.0 | 17.0 | 0.00 | 0.00 | 0.00 | 43 | 1011.2 |
| 20260904000204 | 77 | 258 | 17.0 | 18.0 | 0.00 | 0.00 | 0.00 | 44 | 1011.1 |
| 20260903235703 | 78 | 252 | 17.0 | 24.0 | 0.00 | 0.00 | 0.00 | 43 | 1011.0 |
| 20260903235200 | 78 | 203 | 15.0 | 18.0 | 0.00 | 0.00 | 0.00 | 43 | 1011.0 |
| 20260903234654 | 78 | 243 | 13.0 | 15.0 | 0.00 | 0.00 | 0.00 | 43 | 1011.0 |
| 20260903234150 | 79 | 224 | 15.0 | 18.0 | 0.00 | 0.00 | 0.00 | 42 | 1011.0 |
| 20260903233646 | 78 | 253 | 16.0 | 21.0 | 0.00 | 0.00 | 0.00 | 43 | 1011.1 |
| 20260903233142 | 78 | 212 | 12.0 | 21.0 | 0.00 | 0.00 | 0.00 | 42 | 1010.9 |
| 20260903232636 | 78 | 250 | 17.0 | 20.0 | 0.00 | 0.00 | 0.00 | 43 | 1011.0 |
| 20260903232132 | 79 | 228 | 20.0 | 24.0 | 0.00 | 0.00 | 0.00 | 41 | 1011.3 |
| 20260903231631 | 78 | 216 | 14.0 | 18.0 | 0.00 | 0.00 | 0.00 | 41 | 1010.9 |
| 20260903231126 | 79 | 261 | 16.0 | 22.0 | 0.00 | 0.00 | 0.00 | 40 | 1010.9 |
| 20260903230622 | 79 | 225 | 18.0 | 24.0 | 0.00 | 0.00 | 0.00 | 39 | 1011.4 |
| 20260903230121 | 78 | 239 | 10.0 | 14.0 | 0.00 | 0.00 | 0.00 | 40 | 1011.1 |
| 20260903225618 | 79 | 240 | 20.0 | 24.0 | 0.00 | 0.00 | 0.00 | 37 | 1011.3 |
| 20260903225114 | 79 | 240 | 17.0 | 22.0 | 0.00 | 0.00 | 0.00 | 37 | 1011.1 |
| 20260903224610 | 79 | 238 | 19.0 | 22.0 | 0.00 | 0.00 | 0.00 | 37 | 1011.3 |
| 20260903224106 | 78 | 218 | 15.0 | 20.0 | 0.00 | 0.00 | 0.00 | 35 | 1011.1 |
| 20260903223601 | 79 | 227 | 14.0 | 16.0 | 0.00 | 0.00 | 0.00 | 35 | 1011.4 |
| 20260903223059 | 79 | 244 | 18.0 | 22.0 | 0.00 | 0.00 | 0.00 | 33 | 1011.5 |
| 20260903222554 | 79 | 238 | 10.0 | 13.0 | 0.00 | 0.00 | 0.00 | 37 | 1011.4 |
| 20260903222053 | 79 | 213 | 11.0 | 14.0 | 0.00 | 0.00 | 0.00 | 34 | 1011.6 |
| 20260903221549 | 79 | 235 | 13.0 | 17.0 | 0.00 | 0.00 | 0.00 | 35 | 1011.5 |
| 20260903221046 | 78 | 235 | 25.0 | 32.0 | 0.00 | 0.00 | 0.00 | 35 | 1011.4 |
| 20260903220540 | 79 | 250 | 13.0 | 16.0 | 0.00 | 0.00 | 0.00 | 34 | 1011.4 |
| 20260903220039 | 79 | 251 | 22.0 | 24.0 | 0.00 | 0.00 | 0.00 | 33 | 1011.5 |
| 20260903215539 | 79 | 221 | 19.0 | 23.0 | 0.00 | 0.00 | 0.00 | 33 | 1011.7 |
| 20260903215038 | 78 | 240 | 19.0 | 23.0 | 0.00 | 0.00 | 0.00 | 34 | 1011.4 |
| 20260903214533 | 79 | 229 | 16.0 | 18.0 | 0.00 | 0.00 | 0.00 | 34 | 1011.6 |
| 20260903214028 | 80 | 223 | 15.0 | 18.0 | 0.00 | 0.00 | 0.00 | 32 | 1011.6 |
| 20260903213523 | 79 | 251 | 14.0 | 17.0 | 0.00 | 0.00 | 0.00 | 35 | 1011.5 |
| 20260903213019 | 79 | 261 | 23.0 | 26.0 | 0.00 | 0.00 | 0.00 | 34 | 1011.8 |
| 20260903212515 | 79 | 264 | 14.0 | 17.0 | 0.00 | 0.00 | 0.00 | 34 | 1011.6 |
| 20260903212015 | 78 | 209 | 18.0 | 20.0 | 0.00 | 0.00 | 0.00 | 34 | 1011.6 |
| 20260903211510 | 79 | 258 | 7.0 | 8.0 | 0.00 | 0.00 | 0.00 | 33 | 1011.9 |
| 20260903211007 | 79 | 351 | 19.0 | 20.0 | 0.00 | 0.00 | 0.00 | 32 | 1011.7 |
| 20260903210507 | 79 | 226 | 21.0 | 25.0 | 0.00 | 0.00 | 0.00 | 33 | 1011.6 |
| 20260903210002 | 80 | 246 | 17.0 | 20.0 | 0.00 | 0.00 | 0.00 | 31 | 1011.6 |
| 20260903205455 | 79 | 240 | 17.0 | 20.0 | 0.00 | 0.00 | 0.00 | 30 | 1011.6 |
| 20260903204950 | 79 | 247 | 15.0 | 17.0 | 0.00 | 0.00 | 0.00 | 32 | 1011.6 |
| 20260903204447 | 79 | 237 | 17.0 | 20.0 | 0.00 | 0.00 | 0.00 | 31 | 1011.8 |
| 20260903203942 | 79 | 252 | 21.0 | 25.0 | 0.00 | 0.00 | 0.00 | 29 | 1011.7 |
| 20260903203438 | 79 | 294 | 17.0 | 21.0 | 0.00 | 0.00 | 0.00 | 32 | 1011.7 |
| 20260903202937 | 78 | 227 | 19.0 | 22.0 | 0.00 | 0.00 | 0.00 | 32 | 1011.5 |
| 20260903202433 | 78 | 282 | 11.0 | 18.0 | 0.00 | 0.00 | 0.00 | 32 | 1011.5 |
| 20260903201933 | 79 | 258 | 15.0 | 20.0 | 0.00 | 0.00 | 0.00 | 31 | 1011.9 |
| 20260903201429 | 78 | 240 | 16.0 | 22.0 | 0.00 | 0.00 | 0.00 | 32 | 1011.8 |
| 20260903200927 | 78 | 303 | 20.0 | 22.0 | 0.00 | 0.00 | 0.00 | 33 | 1011.9 |
| 20260903200422 | 79 | 234 | 10.0 | 15.0 | 0.00 | 0.00 | 0.00 | 32 | 1012.1 |
| 20260903195917 | 79 | 264 | 21.0 | 25.0 | 0.00 | 0.00 | 0.00 | 33 | 1012.2 |
| 20260903195414 | 79 | 244 | 14.0 | 17.0 | 0.00 | 0.00 | 0.00 | 32 | 1012.1 |
| 20260903194908 | 78 | 244 | 16.0 | 21.0 | 0.00 | 0.00 | 0.00 | 32 | 1012.2 |
| 20260903194404 | 79 | 207 | 14.0 | 17.0 | 0.00 | 0.00 | 0.00 | 31 | 1012.4 |
| 20260903193859 | 78 | 231 | 8.0 | 9.0 | 0.00 | 0.00 | 0.00 | 31 | 1012.5 |
| 20260903193355 | 79 | 235 | 19.0 | 24.0 | 0.00 | 0.00 | 0.00 | 30 | 1012.1 |
| 20260903192850 | 79 | 239 | 14.0 | 17.0 | 0.00 | 0.00 | 0.00 | 30 | 1012.6 |
| 20260903192346 | 79 | 222 | 15.0 | 21.0 | 0.00 | 0.00 | 0.00 | 29 | 1012.6 |
| 20260903191843 | 79 | 248 | 20.0 | 22.0 | 0.00 | 0.00 | 0.00 | 29 | 1012.2 |
| 20260903191338 | 79 | 189 | 9.0 | 11.0 | 0.00 | 0.00 | 0.00 | 29 | 1012.7 |
| 20260903190837 | 79 | 252 | 15.0 | 18.0 | 0.00 | 0.00 | 0.00 | 30 | 1012.7 |
| 20260903190332 | 79 | 244 | 11.0 | 15.0 | 0.00 | 0.00 | 0.00 | 29 | 1012.6 |
| 20260903185831 | 78 | 237 | 13.0 | 17.0 | 0.00 | 0.00 | 0.00 | 30 | 1012.6 |
| 20260903185327 | 79 | 261 | 16.0 | 20.0 | 0.00 | 0.00 | 0.00 | 30 | 1012.7 |
| 20260903184822 | 79 | 197 | 15.0 | 17.0 | 0.00 | 0.00 | 0.00 | 29 | 1012.8 |
| 20260903184320 | 78 | 241 | 10.0 | 11.0 | 0.00 | 0.00 | 0.00 | 30 | 1012.9 |
| 20260903183814 | 77 | 244 | 13.0 | 21.0 | 0.00 | 0.00 | 0.00 | 30 | 1013.0 |
| 20260903183308 | 77 | 222 | 8.0 | 10.0 | 0.00 | 0.00 | 0.00 | 30 | 1013.0 |
| 20260903182808 | 77 | 242 | 12.0 | 16.0 | 0.00 | 0.00 | 0.00 | 30 | 1013.1 |
| 20260903182302 | 77 | 233 | 18.0 | 22.0 | 0.00 | 0.00 | 0.00 | 30 | 1013.1 |
| 20260903181801 | 77 | 258 | 16.0 | 20.0 | 0.00 | 0.00 | 0.00 | 30 | 1013.0 |
| 20260903181256 | 77 | 251 | 16.0 | 22.0 | 0.00 | 0.00 | 0.00 | 31 | 1013.2 |
| 20260903180751 | 77 | 247 | 11.0 | 13.0 | 0.00 | 0.00 | 0.00 | 31 | 1013.2 |
| 20260903180250 | 76 | 243 | 9.0 | 11.0 | 0.00 | 0.00 | 0.00 | 31 | 1013.2 |
| 20260903175744 | 76 | 247 | 17.0 | 18.0 | 0.00 | 0.00 | 0.00 | 31 | 1013.3 |
| 20260903175244 | 76 | 232 | 17.0 | 23.0 | 0.00 | 0.00 | 0.00 | 30 | 1012.9 |
| 20260903174743 | 76 | 260 | 15.0 | 20.0 | 0.00 | 0.00 | 0.00 | 32 | 1013.0 |
| 20260903174239 | 76 | 258 | 13.0 | 17.0 | 0.00 | 0.00 | 0.00 | 32 | 1013.0 |
| 20260903173734 | 75 | 302 | 12.0 | 14.0 | 0.00 | 0.00 | 0.00 | 32 | 1013.0 |
| 20260903173230 | 76 | 259 | 15.0 | 18.0 | 0.00 | 0.00 | 0.00 | 32 | 1012.8 |
| 20260903172730 | 76 | 248 | 11.0 | 14.0 | 0.00 | 0.00 | 0.00 | 32 | 1013.1 |
| 20260903172225 | 75 | 250 | 9.0 | 10.0 | 0.00 | 0.00 | 0.00 | 33 | 1013.4 |
| 20260903171720 | 75 | 234 | 11.0 | 17.0 | 0.00 | 0.00 | 0.00 | 33 | 1013.3 |
| 20260903171216 | 75 | 260 | 14.0 | 17.0 | 0.00 | 0.00 | 0.00 | 34 | 1013.3 |
| 20260903170714 | 75 | 242 | 14.0 | 16.0 | 0.00 | 0.00 | 0.00 | 33 | 1013.5 |
| 20260903170210 | 74 | 236 | 11.0 | 15.0 | 0.00 | 0.00 | 0.00 | 33 | 1013.2 |
| 20260903165708 | 74 | 245 | 13.0 | 14.0 | 0.00 | 0.00 | 0.00 | 33 | 1013.0 |
| 20260903165203 | 74 | 208 | 8.0 | 13.0 | 0.00 | 0.00 | 0.00 | 34 | 1013.1 |
| 20260903164657 | 74 | 276 | 11.0 | 13.0 | 0.00 | 0.00 | 0.00 | 34 | 1013.2 |
| 20260903164154 | 74 | 257 | 7.0 | 9.0 | 0.00 | 0.00 | 0.00 | 34 | 1013.1 |
| 20260903163653 | 75 | 136 | 4.0 | 5.0 | 0.00 | 0.00 | 0.00 | 33 | 1013.3 |
| 20260903163150 | 75 | 253 | 0.0 | 0.0 | 0.00 | 0.00 | 0.00 | 33 | 1013.0 |
| 20260903162645 | 75 | 355 | 2.0 | 2.0 | 0.00 | 0.00 | 0.00 | 33 | 1013.1 |
| 20260903162141 | 74 | 339 | 3.0 | 3.0 | 0.00 | 0.00 | 0.00 | 33 | 1013.5 |
| 20260903161636 | 73 | 188 | 4.0 | 5.0 | 0.00 | 0.00 | 0.00 | 33 | 1013.2 |
| 20260903161132 | 73 | 105 | 1.0 | 2.0 | 0.00 | 0.00 | 0.00 | 34 | 1013.4 |
| 20260903160627 | 72 | 0 | 3.0 | 5.0 | 0.00 | 0.00 | 0.00 | 34 | 1013.4 |
| 20260903160121 | 72 | 320 | 5.0 | 7.0 | 0.00 | 0.00 | 0.00 | 34 | 1013.3 |
| 20260903155620 | 72 | 245 | 1.0 | 2.0 | 0.00 | 0.00 | 0.00 | 35 | 1013.2 |
| 20260903155115 | 72 | 239 | 8.0 | 10.0 | 0.00 | 0.00 | 0.00 | 34 | 1013.2 |
| 20260903154611 | 71 | 294 | 3.0 | 3.0 | 0.00 | 0.00 | 0.00 | 34 | 1013.2 |
| 20260903154108 | 71 | 304 | 5.0 | 7.0 | 0.00 | 0.00 | 0.00 | 35 | 1013.5 |